sensor_id;sensor_type;location;lat;lon;timestamp;pressure;altitude;pressure_sealevel;temperature;humidity
38900;BME280;24660;43.238;26.576;2022-12-18T00:01:24;100113.41;;;9.15;100.00
38900;BME280;24660;43.238;26.576;2022-12-18T00:03:50;100115.06;;;9.04;100.00
38900;BME280;24660;43.238;26.576;2022-12-18T00:06:16;100128.19;;;9.07;100.00
38900;BME280;24660;43.238;26.576;2022-12-18T00:08:41;100138.81;;;9.21;100.00
38900;BME280;24660;43.238;26.576;2022-12-18T00:11:07;100141.16;;;9.40;100.00
38900;BME280;24660;43.238;26.576;2022-12-18T00:13:33;100142.03;;;9.26;100.00
38900;BME280;24660;43.238;26.576;2022-12-18T00:16:02;100139.97;;;9.31;100.00
38900;BME280;24660;43.238;26.576;2022-12-18T00:18:27;100148.00;;;9.17;100.00
38900;BME280;24660;43.238;26.576;2022-12-18T00:20:53;100152.13;;;9.35;100.00
38900;BME280;24660;43.238;26.576;2022-12-18T00:23:18;100153.69;;;9.11;100.00
38900;BME280;24660;43.238;26.576;2022-12-18T00:25:43;100149.03;;;9.00;100.00
38900;BME280;24660;43.238;26.576;2022-12-18T00:28:09;100149.69;;;9.18;100.00
38900;BME280;24660;43.238;26.576;2022-12-18T00:30:34;100152.72;;;9.26;100.00
38900;BME280;24660;43.238;26.576;2022-12-18T00:32:59;100157.44;;;8.94;100.00
38900;BME280;24660;43.238;26.576;2022-12-18T00:35:24;100163.44;;;8.83;100.00
38900;BME280;24660;43.238;26.576;2022-12-18T00:37:50;100174.19;;;9.10;100.00
38900;BME280;24660;43.238;26.576;2022-12-18T00:40:15;100168.19;;;8.92;100.00
38900;BME280;24660;43.238;26.576;2022-12-18T00:42:40;100172.28;;;8.98;100.00
38900;BME280;24660;43.238;26.576;2022-12-18T00:45:22;100180.56;;;9.08;100.00
38900;BME280;24660;43.238;26.576;2022-12-18T00:47:48;100168.97;;;8.80;100.00
38900;BME280;24660;43.238;26.576;2022-12-18T00:50:13;100175.16;;;8.81;100.00
38900;BME280;24660;43.238;26.576;2022-12-18T00:52:39;100170.09;;;8.62;100.00
38900;BME280;24660;43.238;26.576;2022-12-18T00:55:05;100169.72;;;8.68;100.00
38900;BME280;24660;43.238;26.576;2022-12-18T00:57:30;100166.28;;;8.66;100.00
38900;BME280;24660;43.238;26.576;2022-12-18T00:59:55;100163.91;;;8.61;100.00
38900;BME280;24660;43.238;26.576;2022-12-18T01:02:21;100169.81;;;8.67;100.00
38900;BME280;24660;43.238;26.576;2022-12-18T01:04:46;100176.75;;;8.83;100.00
38900;BME280;24660;43.238;26.576;2022-12-18T01:07:11;100164.03;;;8.88;100.00
38900;BME280;24660;43.238;26.576;2022-12-18T01:09:37;100156.56;;;8.93;100.00
38900;BME280;24660;43.238;26.576;2022-12-18T01:12:02;100166.00;;;8.85;100.00
38900;BME280;24660;43.238;26.576;2022-12-18T01:14:27;100164.56;;;8.51;100.00
38900;BME280;24660;43.238;26.576;2022-12-18T01:16:53;100174.69;;;8.88;100.00
38900;BME280;24660;43.238;26.576;2022-12-18T01:19:18;100181.53;;;8.64;100.00
38900;BME280;24660;43.238;26.576;2022-12-18T01:21:43;100181.81;;;8.74;100.00
38900;BME280;24660;43.238;26.576;2022-12-18T01:24:10;100191.34;;;8.92;100.00
38900;BME280;24660;43.238;26.576;2022-12-18T01:26:36;100187.38;;;8.41;100.00
38900;BME280;24660;43.238;26.576;2022-12-18T01:29:02;100191.69;;;8.57;100.00
38900;BME280;24660;43.238;26.576;2022-12-18T01:31:28;100197.13;;;8.70;100.00
38900;BME280;24660;43.238;26.576;2022-12-18T01:33:53;100199.78;;;8.70;100.00
38900;BME280;24660;43.238;26.576;2022-12-18T01:36:20;100203.84;;;8.17;100.00
38900;BME280;24660;43.238;26.576;2022-12-18T01:38:48;100201.19;;;8.17;100.00
38900;BME280;24660;43.238;26.576;2022-12-18T01:41:15;100214.44;;;7.87;100.00
38900;BME280;24660;43.238;26.576;2022-12-18T01:46:25;100211.09;;;7.99;100.00
38900;BME280;24660;43.238;26.576;2022-12-18T01:48:52;100204.91;;;7.99;100.00
38900;BME280;24660;43.238;26.576;2022-12-18T01:51:18;100211.78;;;7.87;100.00
38900;BME280;24660;43.238;26.576;2022-12-18T01:53:44;100214.13;;;7.93;100.00
38900;BME280;24660;43.238;26.576;2022-12-18T01:56:12;100216.09;;;7.74;100.00
38900;BME280;24660;43.238;26.576;2022-12-18T01:58:41;100213.25;;;7.93;100.00
38900;BME280;24660;43.238;26.576;2022-12-18T02:01:07;100216.34;;;7.85;100.00
38900;BME280;24660;43.238;26.576;2022-12-18T02:03:33;100220.56;;;7.89;100.00
38900;BME280;24660;43.238;26.576;2022-12-18T02:18:55;100239.63;;;7.82;100.00
38900;BME280;24660;43.238;26.576;2022-12-18T02:21:29;100246.06;;;7.93;100.00
38900;BME280;24660;43.238;26.576;2022-12-18T02:31:30;100236.97;;;7.50;100.00
38900;BME280;24660;43.238;26.576;2022-12-18T02:33:57;100242.78;;;7.72;100.00
38900;BME280;24660;43.238;26.576;2022-12-18T02:36:24;100239.72;;;7.64;100.00
38900;BME280;24660;43.238;26.576;2022-12-18T02:38:50;100243.16;;;7.51;100.00
38900;BME280;24660;43.238;26.576;2022-12-18T02:41:17;100241.00;;;7.41;100.00
38900;BME280;24660;43.238;26.576;2022-12-18T02:43:47;100256.88;;;7.43;100.00
38900;BME280;24660;43.238;26.576;2022-12-18T02:46:22;100242.03;;;7.39;100.00
38900;BME280;24660;43.238;26.576;2022-12-18T02:48:49;100253.44;;;7.57;100.00
38900;BME280;24660;43.238;26.576;2022-12-18T02:51:18;100246.41;;;7.71;100.00
38900;BME280;24660;43.238;26.576;2022-12-18T02:53:52;100250.97;;;7.69;100.00
38900;BME280;24660;43.238;26.576;2022-12-18T02:56:25;100255.81;;;7.45;100.00
38900;BME280;24660;43.238;26.576;2022-12-18T03:01:27;100256.09;;;7.57;100.00
38900;BME280;24660;43.238;26.576;2022-12-18T03:03:55;100258.19;;;7.67;100.00
38900;BME280;24660;43.238;26.576;2022-12-18T03:08:48;100267.34;;;7.93;100.00
38900;BME280;24660;43.238;26.576;2022-12-18T03:11:16;100261.91;;;8.11;100.00
38900;BME280;24660;43.238;26.576;2022-12-18T03:14:01;100265.28;;;7.83;100.00
38900;BME280;24660;43.238;26.576;2022-12-18T03:16:28;100288.31;;;7.84;100.00
38900;BME280;24660;43.238;26.576;2022-12-18T03:18:58;100278.22;;;7.41;100.00
38900;BME280;24660;43.238;26.576;2022-12-18T03:21:27;100285.06;;;7.63;100.00
38900;BME280;24660;43.238;26.576;2022-12-18T03:23:53;100292.06;;;7.48;100.00
38900;BME280;24660;43.238;26.576;2022-12-18T03:26:20;100289.56;;;7.45;100.00
38900;BME280;24660;43.238;26.576;2022-12-18T03:28:50;100294.09;;;7.43;100.00
38900;BME280;24660;43.238;26.576;2022-12-18T03:31:16;100293.50;;;7.38;100.00
38900;BME280;24660;43.238;26.576;2022-12-18T03:33:47;100295.66;;;7.14;100.00
38900;BME280;24660;43.238;26.576;2022-12-18T03:36:16;100291.34;;;7.29;100.00
38900;BME280;24660;43.238;26.576;2022-12-18T03:38:41;100292.94;;;7.15;100.00
38900;BME280;24660;43.238;26.576;2022-12-18T03:48:59;100310.00;;;7.11;100.00
38900;BME280;24660;43.238;26.576;2022-12-18T03:51:27;100313.91;;;6.87;100.00
38900;BME280;24660;43.238;26.576;2022-12-18T03:53:57;100314.41;;;6.78;100.00
38900;BME280;24660;43.238;26.576;2022-12-18T03:56:24;100316.75;;;6.67;100.00
38900;BME280;24660;43.238;26.576;2022-12-18T03:58:51;100336.38;;;6.81;100.00
38900;BME280;24660;43.238;26.576;2022-12-18T04:01:17;100336.59;;;6.94;100.00
38900;BME280;24660;43.238;26.576;2022-12-18T04:03:44;100344.00;;;6.88;100.00
38900;BME280;24660;43.238;26.576;2022-12-18T04:06:11;100352.75;;;6.90;100.00
38900;BME280;24660;43.238;26.576;2022-12-18T04:08:36;100356.94;;;6.95;100.00
38900;BME280;24660;43.238;26.576;2022-12-18T04:11:03;100370.84;;;6.83;100.00
38900;BME280;24660;43.238;26.576;2022-12-18T04:13:30;100372.31;;;7.06;100.00
38900;BME280;24660;43.238;26.576;2022-12-18T04:15:56;100383.75;;;7.08;100.00
38900;BME280;24660;43.238;26.576;2022-12-18T04:18:22;100393.72;;;6.68;100.00
38900;BME280;24660;43.238;26.576;2022-12-18T04:20:47;100388.81;;;6.95;100.00
38900;BME280;24660;43.238;26.576;2022-12-18T04:23:12;100398.19;;;7.02;100.00
38900;BME280;24660;43.238;26.576;2022-12-18T04:25:38;100410.00;;;6.97;100.00
38900;BME280;24660;43.238;26.576;2022-12-18T04:28:03;100401.59;;;6.52;100.00
38900;BME280;24660;43.238;26.576;2022-12-18T04:30:28;100403.66;;;6.65;100.00
38900;BME280;24660;43.238;26.576;2022-12-18T04:32:54;100401.69;;;6.68;100.00
38900;BME280;24660;43.238;26.576;2022-12-18T04:35:19;100403.03;;;6.77;100.00
38900;BME280;24660;43.238;26.576;2022-12-18T04:37:44;100406.59;;;6.59;100.00
38900;BME280;24660;43.238;26.576;2022-12-18T04:40:10;100404.28;;;6.87;100.00
38900;BME280;24660;43.238;26.576;2022-12-18T04:42:35;100414.69;;;6.92;100.00
38900;BME280;24660;43.238;26.576;2022-12-18T04:45:00;100414.59;;;6.76;100.00
38900;BME280;24660;43.238;26.576;2022-12-18T04:47:26;100419.59;;;6.65;100.00
38900;BME280;24660;43.238;26.576;2022-12-18T04:49:51;100419.97;;;6.74;100.00
38900;BME280;24660;43.238;26.576;2022-12-18T04:52:16;100430.09;;;6.49;100.00
38900;BME280;24660;43.238;26.576;2022-12-18T04:54:41;100428.88;;;6.37;100.00
38900;BME280;24660;43.238;26.576;2022-12-18T04:57:07;100421.78;;;6.19;100.00
38900;BME280;24660;43.238;26.576;2022-12-18T04:59:32;100417.91;;;6.26;100.00
38900;BME280;24660;43.238;26.576;2022-12-18T05:01:57;100428.38;;;6.29;100.00
38900;BME280;24660;43.238;26.576;2022-12-18T05:04:23;100429.25;;;6.11;100.00
38900;BME280;24660;43.238;26.576;2022-12-18T05:06:48;100432.25;;;6.03;100.00
38900;BME280;24660;43.238;26.576;2022-12-18T05:09:13;100431.63;;;6.17;100.00
38900;BME280;24660;43.238;26.576;2022-12-18T05:11:39;100437.50;;;6.23;100.00
38900;BME280;24660;43.238;26.576;2022-12-18T05:14:04;100445.97;;;6.32;100.00
38900;BME280;24660;43.238;26.576;2022-12-18T05:16:29;100449.19;;;6.38;100.00
38900;BME280;24660;43.238;26.576;2022-12-18T05:18:54;100449.13;;;6.21;100.00
38900;BME280;24660;43.238;26.576;2022-12-18T05:21:20;100461.31;;;6.44;100.00
38900;BME280;24660;43.238;26.576;2022-12-18T05:23:45;100463.09;;;6.43;100.00
38900;BME280;24660;43.238;26.576;2022-12-18T05:26:13;100469.44;;;6.22;100.00
38900;BME280;24660;43.238;26.576;2022-12-18T05:28:39;100462.19;;;6.25;100.00
38900;BME280;24660;43.238;26.576;2022-12-18T05:31:05;100467.72;;;6.40;100.00
38900;BME280;24660;43.238;26.576;2022-12-18T05:33:31;100473.59;;;6.28;100.00
38900;BME280;24660;43.238;26.576;2022-12-18T05:35:58;100462.75;;;6.32;100.00
38900;BME280;24660;43.238;26.576;2022-12-18T05:38:25;100472.06;;;6.03;100.00
38900;BME280;24660;43.238;26.576;2022-12-18T05:40:50;100479.69;;;6.11;100.00
38900;BME280;24660;43.238;26.576;2022-12-18T05:43:16;100480.34;;;6.35;100.00
38900;BME280;24660;43.238;26.576;2022-12-18T05:45:42;100488.44;;;5.94;100.00
38900;BME280;24660;43.238;26.576;2022-12-18T05:48:07;100498.28;;;6.11;100.00
38900;BME280;24660;43.238;26.576;2022-12-18T05:50:34;100494.34;;;6.38;100.00
38900;BME280;24660;43.238;26.576;2022-12-18T05:52:59;100500.75;;;5.95;100.00
38900;BME280;24660;43.238;26.576;2022-12-18T05:55:24;100505.44;;;6.09;100.00
38900;BME280;24660;43.238;26.576;2022-12-18T05:57:51;100510.31;;;6.18;100.00
38900;BME280;24660;43.238;26.576;2022-12-18T06:00:16;100517.78;;;6.10;100.00
38900;BME280;24660;43.238;26.576;2022-12-18T06:02:41;100520.16;;;6.16;100.00
38900;BME280;24660;43.238;26.576;2022-12-18T06:05:07;100537.13;;;5.93;100.00
38900;BME280;24660;43.238;26.576;2022-12-18T06:07:32;100536.84;;;5.79;100.00
38900;BME280;24660;43.238;26.576;2022-12-18T06:09:57;100555.88;;;5.68;100.00
38900;BME280;24660;43.238;26.576;2022-12-18T06:12:23;100555.41;;;5.79;100.00
38900;BME280;24660;43.238;26.576;2022-12-18T06:14:48;100557.03;;;5.61;100.00
38900;BME280;24660;43.238;26.576;2022-12-18T06:17:13;100559.59;;;5.64;100.00
38900;BME280;24660;43.238;26.576;2022-12-18T06:19:38;100556.28;;;5.79;100.00
38900;BME280;24660;43.238;26.576;2022-12-18T06:22:04;100562.63;;;5.75;100.00
38900;BME280;24660;43.238;26.576;2022-12-18T06:24:29;100567.91;;;5.55;100.00
38900;BME280;24660;43.238;26.576;2022-12-18T06:26:55;100589.00;;;5.58;100.00
38900;BME280;24660;43.238;26.576;2022-12-18T06:29:20;100596.16;;;5.76;100.00
38900;BME280;24660;43.238;26.576;2022-12-18T06:31:45;100589.56;;;5.86;100.00
38900;BME280;24660;43.238;26.576;2022-12-18T06:34:10;100595.63;;;5.90;100.00
38900;BME280;24660;43.238;26.576;2022-12-18T06:36:36;100589.91;;;5.99;100.00
38900;BME280;24660;43.238;26.576;2022-12-18T06:39:01;100587.19;;;6.01;100.00
38900;BME280;24660;43.238;26.576;2022-12-18T06:41:27;100590.63;;;5.82;100.00
38900;BME280;24660;43.238;26.576;2022-12-18T06:43:52;100604.44;;;6.11;100.00
38900;BME280;24660;43.238;26.576;2022-12-18T06:46:18;100609.88;;;6.28;100.00
38900;BME280;24660;43.238;26.576;2022-12-18T06:48:46;100609.09;;;6.45;100.00
38900;BME280;24660;43.238;26.576;2022-12-18T06:51:11;100613.84;;;6.38;100.00
38900;BME280;24660;43.238;26.576;2022-12-18T06:53:37;100617.50;;;6.15;100.00
38900;BME280;24660;43.238;26.576;2022-12-18T06:56:03;100627.59;;;6.28;100.00
38900;BME280;24660;43.238;26.576;2022-12-18T06:58:28;100624.84;;;6.49;100.00
38900;BME280;24660;43.238;26.576;2022-12-18T07:00:58;100617.84;;;6.28;100.00
38900;BME280;24660;43.238;26.576;2022-12-18T07:03:24;100627.13;;;6.18;100.00
38900;BME280;24660;43.238;26.576;2022-12-18T07:05:49;100631.50;;;6.19;100.00
38900;BME280;24660;43.238;26.576;2022-12-18T07:08:14;100636.94;;;6.36;100.00
38900;BME280;24660;43.238;26.576;2022-12-18T07:10:40;100637.75;;;6.38;100.00
38900;BME280;24660;43.238;26.576;2022-12-18T07:13:06;100642.00;;;6.02;100.00
38900;BME280;24660;43.238;26.576;2022-12-18T07:15:31;100646.56;;;6.39;100.00
38900;BME280;24660;43.238;26.576;2022-12-18T07:17:57;100650.41;;;5.91;100.00
38900;BME280;24660;43.238;26.576;2022-12-18T07:20:22;100647.50;;;5.75;100.00
38900;BME280;24660;43.238;26.576;2022-12-18T07:22:47;100663.56;;;5.72;100.00
38900;BME280;24660;43.238;26.576;2022-12-18T07:25:12;100658.00;;;6.00;100.00
38900;BME280;24660;43.238;26.576;2022-12-18T07:27:38;100663.25;;;5.80;100.00
38900;BME280;24660;43.238;26.576;2022-12-18T07:30:03;100666.44;;;5.88;100.00
38900;BME280;24660;43.238;26.576;2022-12-18T07:32:29;100660.25;;;5.67;100.00
38900;BME280;24660;43.238;26.576;2022-12-18T07:34:55;100672.16;;;5.79;100.00
38900;BME280;24660;43.238;26.576;2022-12-18T07:37:20;100675.81;;;5.75;100.00
38900;BME280;24660;43.238;26.576;2022-12-18T07:39:46;100680.50;;;6.12;100.00
38900;BME280;24660;43.238;26.576;2022-12-18T07:42:11;100685.06;;;5.86;100.00
38900;BME280;24660;43.238;26.576;2022-12-18T07:44:51;100690.84;;;6.18;100.00
38900;BME280;24660;43.238;26.576;2022-12-18T07:47:17;100695.75;;;6.47;100.00
38900;BME280;24660;43.238;26.576;2022-12-18T07:49:42;100690.44;;;6.47;100.00
38900;BME280;24660;43.238;26.576;2022-12-18T07:52:07;100694.41;;;6.58;100.00
38900;BME280;24660;43.238;26.576;2022-12-18T07:54:34;100700.19;;;6.67;100.00
38900;BME280;24660;43.238;26.576;2022-12-18T07:56:59;100692.97;;;6.50;100.00
38900;BME280;24660;43.238;26.576;2022-12-18T07:59:25;100703.31;;;6.16;100.00
38900;BME280;24660;43.238;26.576;2022-12-18T08:01:50;100694.16;;;6.03;100.00
38900;BME280;24660;43.238;26.576;2022-12-18T08:04:15;100698.09;;;6.35;100.00
38900;BME280;24660;43.238;26.576;2022-12-18T08:06:41;100700.50;;;6.20;100.00
38900;BME280;24660;43.238;26.576;2022-12-18T08:09:06;100701.50;;;5.74;100.00
38900;BME280;24660;43.238;26.576;2022-12-18T08:11:33;100701.38;;;5.99;100.00
38900;BME280;24660;43.238;26.576;2022-12-18T08:13:58;100702.16;;;6.23;100.00
38900;BME280;24660;43.238;26.576;2022-12-18T08:16:23;100706.19;;;6.11;100.00
38900;BME280;24660;43.238;26.576;2022-12-18T08:18:49;100709.75;;;5.88;100.00
38900;BME280;24660;43.238;26.576;2022-12-18T08:21:17;100710.88;;;5.61;100.00
38900;BME280;24660;43.238;26.576;2022-12-18T08:23:43;100725.19;;;6.01;100.00
38900;BME280;24660;43.238;26.576;2022-12-18T08:26:09;100717.31;;;5.99;100.00
38900;BME280;24660;43.238;26.576;2022-12-18T08:28:34;100723.47;;;6.00;100.00
38900;BME280;24660;43.238;26.576;2022-12-18T08:31:00;100729.72;;;6.19;100.00
38900;BME280;24660;43.238;26.576;2022-12-18T08:33:25;100736.94;;;6.37;100.00
38900;BME280;24660;43.238;26.576;2022-12-18T08:35:51;100736.22;;;5.91;100.00
38900;BME280;24660;43.238;26.576;2022-12-18T08:38:16;100742.09;;;6.20;100.00
38900;BME280;24660;43.238;26.576;2022-12-18T08:40:41;100738.53;;;6.62;100.00
38900;BME280;24660;43.238;26.576;2022-12-18T08:43:08;100741.06;;;6.02;100.00
38900;BME280;24660;43.238;26.576;2022-12-18T08:45:49;100735.28;;;6.35;100.00
38900;BME280;24660;43.238;26.576;2022-12-18T08:48:14;100734.16;;;6.40;100.00
38900;BME280;24660;43.238;26.576;2022-12-18T08:50:40;100734.81;;;6.66;100.00
38900;BME280;24660;43.238;26.576;2022-12-18T08:53:05;100740.72;;;6.52;100.00
38900;BME280;24660;43.238;26.576;2022-12-18T08:55:31;100731.00;;;6.31;100.00
38900;BME280;24660;43.238;26.576;2022-12-18T08:57:56;100726.91;;;6.44;100.00
38900;BME280;24660;43.238;26.576;2022-12-18T09:00:21;100740.09;;;6.45;100.00
38900;BME280;24660;43.238;26.576;2022-12-18T09:02:46;100739.13;;;6.68;100.00
38900;BME280;24660;43.238;26.576;2022-12-18T09:05:12;100742.56;;;6.30;100.00
38900;BME280;24660;43.238;26.576;2022-12-18T09:07:37;100741.91;;;6.24;100.00
38900;BME280;24660;43.238;26.576;2022-12-18T09:10:02;100741.56;;;6.32;100.00
38900;BME280;24660;43.238;26.576;2022-12-18T09:12:28;100751.94;;;6.59;100.00
38900;BME280;24660;43.238;26.576;2022-12-18T09:14:53;100752.31;;;6.70;100.00
38900;BME280;24660;43.238;26.576;2022-12-18T09:17:18;100753.78;;;6.57;100.00
38900;BME280;24660;43.238;26.576;2022-12-18T09:19:44;100745.75;;;6.78;100.00
38900;BME280;24660;43.238;26.576;2022-12-18T09:22:09;100757.06;;;7.02;100.00
38900;BME280;24660;43.238;26.576;2022-12-18T09:24:34;100751.97;;;7.17;100.00
38900;BME280;24660;43.238;26.576;2022-12-18T09:27:00;100750.53;;;6.91;100.00
38900;BME280;24660;43.238;26.576;2022-12-18T09:29:25;100763.44;;;6.79;100.00
38900;BME280;24660;43.238;26.576;2022-12-18T09:31:51;100768.13;;;6.73;100.00
38900;BME280;24660;43.238;26.576;2022-12-18T09:34:16;100756.72;;;6.71;100.00
38900;BME280;24660;43.238;26.576;2022-12-18T09:36:41;100754.59;;;6.59;100.00
38900;BME280;24660;43.238;26.576;2022-12-18T09:39:07;100754.19;;;6.47;100.00
38900;BME280;24660;43.238;26.576;2022-12-18T09:43:59;100749.28;;;6.59;100.00
38900;BME280;24660;43.238;26.576;2022-12-18T09:46:27;100748.47;;;6.57;100.00
38900;BME280;24660;43.238;26.576;2022-12-18T09:48:54;100747.34;;;6.82;100.00
38900;BME280;24660;43.238;26.576;2022-12-18T09:51:23;100745.09;;;7.12;100.00
38900;BME280;24660;43.238;26.576;2022-12-18T09:53:53;100754.97;;;6.90;100.00
38900;BME280;24660;43.238;26.576;2022-12-18T09:56:21;100742.09;;;6.81;100.00
38900;BME280;24660;43.238;26.576;2022-12-18T09:58:51;100742.56;;;6.70;100.00
38900;BME280;24660;43.238;26.576;2022-12-18T10:01:21;100753.13;;;6.92;100.00
38900;BME280;24660;43.238;26.576;2022-12-18T10:03:47;100753.50;;;6.83;100.00
38900;BME280;24660;43.238;26.576;2022-12-18T10:06:15;100750.94;;;5.99;100.00
38900;BME280;24660;43.238;26.576;2022-12-18T10:16:34;100761.25;;;7.27;100.00
38900;BME280;24660;43.238;26.576;2022-12-18T10:19:36;100756.31;;;7.38;100.00
38900;BME280;24660;43.238;26.576;2022-12-18T10:24:32;100759.25;;;7.13;100.00
38900;BME280;24660;43.238;26.576;2022-12-18T10:27:07;100760.41;;;7.45;100.00
38900;BME280;24660;43.238;26.576;2022-12-18T10:29:34;100757.53;;;7.50;100.00
38900;BME280;24660;43.238;26.576;2022-12-18T10:31:59;100767.97;;;7.54;100.00
38900;BME280;24660;43.238;26.576;2022-12-18T10:34:24;100768.06;;;6.95;100.00
38900;BME280;24660;43.238;26.576;2022-12-18T10:36:50;100759.16;;;6.96;100.00
38900;BME280;24660;43.238;26.576;2022-12-18T10:39:16;100773.41;;;7.13;100.00
38900;BME280;24660;43.238;26.576;2022-12-18T10:41:42;100765.16;;;6.40;100.00
38900;BME280;24660;43.238;26.576;2022-12-18T10:46:49;100782.44;;;6.91;100.00
38900;BME280;24660;43.238;26.576;2022-12-18T10:49:18;100781.38;;;7.13;100.00
38900;BME280;24660;43.238;26.576;2022-12-18T10:51:44;100778.09;;;6.88;100.00
38900;BME280;24660;43.238;26.576;2022-12-18T10:54:18;100793.13;;;6.48;100.00
38900;BME280;24660;43.238;26.576;2022-12-18T10:56:46;100784.88;;;6.75;100.00
38900;BME280;24660;43.238;26.576;2022-12-18T10:59:12;100777.84;;;6.11;100.00
38900;BME280;24660;43.238;26.576;2022-12-18T11:01:51;100780.91;;;6.65;100.00
38900;BME280;24660;43.238;26.576;2022-12-18T11:04:18;100789.31;;;6.54;100.00
38900;BME280;24660;43.238;26.576;2022-12-18T11:09:28;100798.38;;;6.50;100.00
38900;BME280;24660;43.238;26.576;2022-12-18T11:11:54;100795.38;;;6.78;100.00
38900;BME280;24660;43.238;26.576;2022-12-18T11:16:46;100795.84;;;7.27;100.00
38900;BME280;24660;43.238;26.576;2022-12-18T11:21:39;100806.94;;;6.77;100.00
38900;BME280;24660;43.238;26.576;2022-12-18T11:24:07;100805.81;;;6.20;100.00
38900;BME280;24660;43.238;26.576;2022-12-18T11:26:40;100807.72;;;6.59;100.00
38900;BME280;24660;43.238;26.576;2022-12-18T11:29:09;100807.00;;;6.33;100.00
38900;BME280;24660;43.238;26.576;2022-12-18T11:31:35;100803.06;;;6.84;100.00
38900;BME280;24660;43.238;26.576;2022-12-18T11:36:42;100815.44;;;7.05;100.00
38900;BME280;24660;43.238;26.576;2022-12-18T11:39:17;100815.56;;;6.82;100.00
38900;BME280;24660;43.238;26.576;2022-12-18T11:41:47;100815.75;;;6.98;100.00
38900;BME280;24660;43.238;26.576;2022-12-18T11:44:31;100829.66;;;7.04;100.00
38900;BME280;24660;43.238;26.576;2022-12-18T11:47:03;100816.03;;;7.31;100.00
38900;BME280;24660;43.238;26.576;2022-12-18T11:49:33;100816.53;;;7.20;100.00
38900;BME280;24660;43.238;26.576;2022-12-18T11:54:40;100814.81;;;7.19;100.00
38900;BME280;24660;43.238;26.576;2022-12-18T12:15:21;100807.78;;;7.18;100.00
38900;BME280;24660;43.238;26.576;2022-12-18T12:17:59;100816.22;;;6.87;100.00
38900;BME280;24660;43.238;26.576;2022-12-18T12:21:07;100818.44;;;7.17;100.00
38900;BME280;24660;43.238;26.576;2022-12-18T12:23:15;100825.88;;;7.29;100.00
38900;BME280;24660;43.238;26.576;2022-12-18T12:25:51;100829.47;;;7.28;100.00
38900;BME280;24660;43.238;26.576;2022-12-18T12:35:44;100821.47;;;6.89;100.00
38900;BME280;24660;43.238;26.576;2022-12-18T12:38:13;100827.59;;;7.11;100.00
38900;BME280;24660;43.238;26.576;2022-12-18T12:40:43;100821.72;;;7.03;100.00
38900;BME280;24660;43.238;26.576;2022-12-18T12:43:21;100812.78;;;7.05;100.00
38900;BME280;24660;43.238;26.576;2022-12-18T12:51:15;100834.47;;;7.15;100.00
38900;BME280;24660;43.238;26.576;2022-12-18T12:53:41;100833.13;;;7.06;100.00
38900;BME280;24660;43.238;26.576;2022-12-18T12:56:06;100839.41;;;6.83;100.00
38900;BME280;24660;43.238;26.576;2022-12-18T13:08:51;100850.06;;;6.41;100.00
38900;BME280;24660;43.238;26.576;2022-12-18T13:19:34;100853.69;;;6.61;100.00
38900;BME280;24660;43.238;26.576;2022-12-18T13:22:00;100864.72;;;6.51;100.00
38900;BME280;24660;43.238;26.576;2022-12-18T13:24:26;100877.19;;;6.49;100.00
38900;BME280;24660;43.238;26.576;2022-12-18T13:26:52;100880.31;;;6.59;100.00
38900;BME280;24660;43.238;26.576;2022-12-18T13:31:58;100881.13;;;6.39;100.00
38900;BME280;24660;43.238;26.576;2022-12-18T13:34:25;100886.09;;;6.48;100.00
38900;BME280;24660;43.238;26.576;2022-12-18T13:36:51;100897.53;;;6.71;100.00
38900;BME280;24660;43.238;26.576;2022-12-18T13:41:43;100898.81;;;6.62;100.00
38900;BME280;24660;43.238;26.576;2022-12-18T13:44:12;100898.38;;;6.51;100.00
38900;BME280;24660;43.238;26.576;2022-12-18T13:46:45;100911.59;;;6.52;100.00
38900;BME280;24660;43.238;26.576;2022-12-18T13:51:39;100915.31;;;6.48;100.00
38900;BME280;24660;43.238;26.576;2022-12-18T13:54:10;100917.94;;;6.27;100.00
38900;BME280;24660;43.238;26.576;2022-12-18T13:56:42;100908.50;;;6.41;100.00
38900;BME280;24660;43.238;26.576;2022-12-18T14:01:33;100915.22;;;6.28;100.00
38900;BME280;24660;43.238;26.576;2022-12-18T14:06:39;100926.72;;;6.50;100.00
38900;BME280;24660;43.238;26.576;2022-12-18T14:09:04;100930.31;;;6.49;100.00
38900;BME280;24660;43.238;26.576;2022-12-18T14:11:30;100928.91;;;6.63;100.00
38900;BME280;24660;43.238;26.576;2022-12-18T14:13:55;100931.47;;;6.42;100.00
38900;BME280;24660;43.238;26.576;2022-12-18T14:16:21;100934.25;;;6.39;100.00
38900;BME280;24660;43.238;26.576;2022-12-18T14:18:48;100934.41;;;6.13;100.00
38900;BME280;24660;43.238;26.576;2022-12-18T14:21:18;100939.06;;;6.30;100.00
38900;BME280;24660;43.238;26.576;2022-12-18T14:23:45;100942.03;;;6.22;100.00
38900;BME280;24660;43.238;26.576;2022-12-18T14:26:21;100953.53;;;6.22;100.00
38900;BME280;24660;43.238;26.576;2022-12-18T14:28:47;100950.22;;;6.16;100.00
38900;BME280;24660;43.238;26.576;2022-12-18T14:31:20;100954.84;;;6.11;100.00
38900;BME280;24660;43.238;26.576;2022-12-18T14:33:46;100954.44;;;5.98;100.00
38900;BME280;24660;43.238;26.576;2022-12-18T14:36:13;100950.09;;;6.19;100.00
38900;BME280;24660;43.238;26.576;2022-12-18T14:38:40;100962.47;;;6.20;100.00
38900;BME280;24660;43.238;26.576;2022-12-18T14:41:09;100952.00;;;6.15;100.00
38900;BME280;24660;43.238;26.576;2022-12-18T14:43:36;100953.13;;;6.10;100.00
38900;BME280;24660;43.238;26.576;2022-12-18T14:46:02;100953.94;;;6.12;100.00